Time;durP1;ratioP1;P1;durP2;ratioP2;P2;SDS_P1;SDS_P2;PMS_P1;PMS_P2;Temp;Humidity;BMP_temperature;BMP_pressure;BME280_temperature;BME280_humidity;BME280_pressure;Samples;Min_cycle;Max_cycle;Signal;HPM_P1;HPM_P2
2022/12/10 00:01:12;;;;;;;144.40;46.15;;;;;;;-0.73;95.96;94788.38;2041580;29;20155;-65
2022/12/10 00:02:13;;;;;;;154.05;45.63;;;;;;;-0.77;95.93;94785.09;2041119;29;20062;-54
2022/12/10 00:03:14;;;;;;;151.07;43.10;;;;;;;-0.83;95.86;94789.47;2041735;29;20051;-55
2022/12/10 00:04:15;;;;;;;150.68;45.70;;;;;;;-0.86;96.90;94797.19;2042090;29;20043;-56
2022/12/10 00:05:16;;;;;;;161.80;47.42;;;;;;;-0.94;96.59;94789.69;2041878;29;20479;-55
2022/12/10 00:06:19;;;;;;;170.60;47.05;;;;;;;-0.96;96.29;94794.84;2042052;29;20039;-55
2022/12/10 00:07:20;;;;;;;165.88;47.67;;;;;;;-0.96;96.25;94797.41;2041303;29;20060;-55
2022/12/10 00:08:21;;;;;;;156.05;47.15;;;;;;;-0.94;96.97;94794.78;2041609;29;20496;-54
2022/12/10 00:09:22;;;;;;;168.43;43.92;;;;;;;-0.94;96.92;94795.63;2042046;29;20043;-55
2022/12/10 00:10:23;;;;;;;174.02;47.65;;;;;;;-0.89;97.13;94798.09;2041659;29;20051;-55
2022/12/10 00:11:25;;;;;;;164.13;44.92;;;;;;;-0.93;96.38;94801.59;2041517;29;20381;-56
2022/12/10 00:12:26;;;;;;;142.75;45.22;;;;;;;-0.90;96.50;94797.25;2041443;29;20131;-55
2022/12/10 00:13:27;;;;;;;139.63;42.88;;;;;;;-0.90;96.52;94802.34;2041470;29;20039;-55
2022/12/10 00:14:28;;;;;;;173.45;47.22;;;;;;;-1.02;96.40;94796.69;2041420;29;20047;-54
2022/12/10 00:15:29;;;;;;;159.05;44.33;;;;;;;-0.97;96.62;94799.97;2041403;29;20389;-55
2022/12/10 00:16:30;;;;;;;147.45;44.90;;;;;;;-0.89;97.07;94798.09;2041933;29;20039;-54
2022/12/10 00:17:31;;;;;;;153.82;45.58;;;;;;;-0.92;96.57;94798.16;2041276;29;20052;-55
2022/12/10 00:18:33;;;;;;;154.02;44.83;;;;;;;-0.91;97.25;94792.19;2041578;29;20495;-55
2022/12/10 00:19:34;;;;;;;152.52;43.42;;;;;;;-0.83;97.19;94803.03;2041252;29;20055;-55
2022/12/10 00:20:36;;;;;;;143.60;42.35;;;;;;;-0.85;96.20;94802.25;2041673;29;20058;-54
2022/12/10 00:21:37;;;;;;;142.40;43.42;;;;;;;-0.85;96.13;94799.72;2041854;29;20059;-58
2022/12/10 00:22:38;;;;;;;154.82;43.90;;;;;;;-0.83;96.26;94799.66;2041264;29;20544;-58
2022/12/10 00:23:40;;;;;;;148.15;43.78;;;;;;;-0.82;96.78;94804.75;2041527;29;20048;-58
2022/12/10 00:24:41;;;;;;;140.55;41.85;;;;;;;-0.96;96.17;94802.50;2041712;29;20040;-58
2022/12/10 00:25:42;;;;;;;145.20;43.10;;;;;;;-0.93;96.15;94796.50;2041776;29;20043;-58
2022/12/10 00:26:45;;;;;;;131.23;40.03;;;;;;;-0.91;96.63;94803.25;2041261;29;20079;-58
2022/12/10 00:27:46;;;;;;;130.70;40.75;;;;;;;-0.90;96.21;94802.34;2041756;29;20044;-57
2022/12/10 00:28:48;;;;;;;137.27;40.47;;;;;;;-1.00;96.60;94798.31;2041768;29;20063;-57
2022/12/10 00:29:49;;;;;;;135.65;41.22;;;;;;;-1.02;95.97;94800.06;2040325;29;20082;-57
2022/12/10 00:30:50;;;;;;;138.57;40.63;;;;;;;-0.94;95.93;94802.44;2040819;29;20146;-57
2022/12/10 00:31:51;;;;;;;135.40;41.80;;;;;;;-0.83;96.06;94803.03;2041024;29;20056;-57
2022/12/10 00:32:52;;;;;;;137.93;39.35;;;;;;;-0.80;96.01;94797.03;2040857;29;20063;-57
2022/12/10 00:33:57;;;;;;;139.43;41.78;;;;;;;-0.80;96.34;94797.03;2041323;29;20136;-57
2022/12/10 00:34:58;;;;;;;134.43;41.08;;;;;;;-0.82;96.04;94804.75;2040590;29;20051;-57
2022/12/10 00:36:04;;;;;;;132.80;41.65;;;;;;;-0.84;96.61;94800.53;2041113;29;20043;-57
2022/12/10 00:37:05;;;;;;;141.43;44.78;;;;;;;-0.85;96.14;94797.16;2041513;29;20052;-57
2022/12/10 00:38:06;;;;;;;147.90;43.40;;;;;;;-0.84;96.39;94803.09;2041210;29;20372;-57
2022/12/10 00:39:07;;;;;;;133.65;43.58;;;;;;;-0.86;96.66;94813.31;2040613;29;20040;-57
2022/12/10 00:40:10;;;;;;;139.27;41.85;;;;;;;-0.79;96.23;94812.31;2040574;29;20052;-57
2022/12/10 00:41:11;;;;;;;140.48;42.63;;;;;;;-0.82;96.08;94809.00;2041626;29;20506;-57
2022/12/10 00:42:12;;;;;;;147.23;45.22;;;;;;;-0.78;96.03;94810.59;2041032;29;20090;-57
2022/12/10 00:43:13;;;;;;;141.45;42.30;;;;;;;-0.70;96.48;94803.63;2041014;29;20051;-57
2022/12/10 00:44:15;;;;;;;149.80;44.72;;;;;;;-0.70;95.92;94808.72;2040419;29;20051;-57
2022/12/10 00:45:16;;;;;;;147.82;45.17;;;;;;;-0.74;96.19;94810.50;2041091;29;20066;-57
2022/12/10 00:46:17;;;;;;;149.30;42.92;;;;;;;-0.79;95.67;94811.47;2048448;29;20047;-57
2022/12/10 00:47:18;;;;;;;154.75;43.20;;;;;;;-0.84;95.74;94806.47;2041112;29;20047;-57
2022/12/10 00:48:20;;;;;;;142.57;40.90;;;;;;;-0.89;96.45;94808.28;2041653;29;20047;-57
2022/12/10 00:49:24;;;;;;;150.90;43.85;;;;;;;-0.90;95.68;94810.00;2040958;29;20059;-57
2022/12/10 00:50:25;;;;;;;143.25;43.45;;;;;;;-0.88;96.59;94815.06;2040431;29;20071;-57
2022/12/10 00:51:26;;;;;;;151.38;44.33;;;;;;;-0.84;96.17;94810.75;2041644;29;20035;-57
2022/12/10 00:52:27;;;;;;;133.77;42.80;;;;;;;-0.83;96.04;94810.69;2041618;29;20400;-57
2022/12/10 00:53:29;;;;;;;137.10;41.35;;;;;;;-0.84;96.30;94816.66;2040274;29;20048;-57
2022/12/10 00:54:30;;;;;;;139.05;41.97;;;;;;;-0.88;96.19;94820.19;2033457;29;20052;-57
2022/12/10 00:55:31;;;;;;;139.82;42.08;;;;;;;-0.88;96.17;94809.97;2040970;29;20062;-57
2022/12/10 00:56:33;;;;;;;142.43;42.45;;;;;;;-0.87;95.97;94819.28;2041642;29;20043;-65
2022/12/10 00:57:34;;;;;;;142.10;43.05;;;;;;;-0.83;95.92;94820.06;2041082;29;20056;-65
2022/12/10 00:58:35;;;;;;;142.43;43.55;;;;;;;-0.81;96.36;94808.13;2041261;29;20047;-66
2022/12/10 00:59:36;;;;;;;140.07;42.78;;;;;;;-0.83;96.22;94808.13;2041162;29;20048;-66
2022/12/10 01:00:38;;;;;;;130.45;41.90;;;;;;;-0.82;96.00;94819.19;2040876;29;20124;-66
2022/12/10 01:01:40;;;;;;;135.93;41.90;;;;;;;-0.86;96.35;94818.41;2040557;29;20062;-65
2022/12/10 01:02:41;;;;;;;148.05;42.58;;;;;;;-0.82;95.77;94821.75;2041778;29;20040;-65
2022/12/10 01:03:44;;;;;;;153.57;42.00;;;;;;;-0.76;96.34;94821.59;2041245;29;20036;-66
2022/12/10 01:04:46;;;;;;;140.90;42.17;;;;;;;-0.69;95.55;94824.00;2032622;29;20056;-66
2022/12/10 01:05:47;;;;;;;162.57;43.38;;;;;;;-0.74;95.41;94815.59;2033071;29;20051;-65
2022/12/10 01:06:50;;;;;;;131.75;39.60;;;;;;;-0.78;96.27;94823.34;2040779;29;20056;-65
2022/12/10 01:07:53;;;;;;;146.43;40.88;;;;;;;-0.75;95.67;94825.81;2041564;29;20036;-65
2022/12/10 01:08:57;;;;;;;143.30;41.50;;;;;;;-0.80;95.57;94822.53;2041328;29;20043;-66
2022/12/10 01:10:00;;;;;;;147.85;41.72;;;;;;;-0.74;95.75;94825.81;2040962;29;20051;-65
2022/12/10 01:11:01;;;;;;;151.57;44.88;;;;;;;-0.76;95.28;94825.00;2040728;29;20044;-65
2022/12/10 01:12:02;;;;;;;144.52;41.92;;;;;;;-0.87;95.30;94813.34;2041732;29;20507;-59
2022/12/10 01:13:04;;;;;;;145.95;40.38;;;;;;;-0.84;96.02;94811.56;2040986;29;20380;-59
2022/12/10 01:14:06;;;;;;;140.00;40.25;;;;;;;-0.83;95.81;94807.31;2042699;29;20047;-59
2022/12/10 01:15:07;;;;;;;144.50;38.67;;;;;;;-0.78;96.08;94811.44;2049669;29;20058;-59
2022/12/10 01:16:09;;;;;;;159.98;43.42;;;;;;;-0.82;95.61;94811.56;2050456;29;20047;-58
2022/12/10 01:17:11;;;;;;;138.85;41.25;;;;;;;-0.86;95.99;94808.22;2043617;29;20048;-57
2022/12/10 01:18:12;;;;;;;150.15;42.53;;;;;;;-0.74;95.74;94812.22;2043221;29;20062;-57
2022/12/10 01:19:15;;;;;;;143.68;42.78;;;;;;;-0.86;95.21;94810.75;2042290;29;20043;-57
2022/12/10 01:20:16;;;;;;;150.25;42.50;;;;;;;-0.89;95.78;94813.38;2042582;29;20051;-57
2022/12/10 01:21:18;;;;;;;139.48;42.58;;;;;;;-0.84;96.19;94813.28;2043115;29;20052;-57
2022/12/10 01:22:19;;;;;;;144.90;41.13;;;;;;;-0.86;95.79;94813.31;2043481;29;20348;-57
2022/12/10 01:23:21;;;;;;;144.00;45.15;;;;;;;-0.95;96.20;94809.25;2042820;29;20040;-57
2022/12/10 01:24:23;;;;;;;151.27;45.50;;;;;;;-1.02;96.33;94802.59;2042070;29;20071;-57
2022/12/10 01:25:24;;;;;;;141.85;41.75;;;;;;;-0.97;96.37;94813.53;2043150;29;20144;-56
2022/12/10 01:26:27;;;;;;;145.18;43.05;;;;;;;-0.94;96.32;94817.72;2043278;29;20039;-57
2022/12/10 01:27:28;;;;;;;149.95;44.05;;;;;;;-0.98;95.83;94816.97;2034606;29;20054;-57
2022/12/10 01:28:31;;;;;;;145.93;41.78;;;;;;;-1.01;96.37;94817.03;2034550;29;20052;-57
2022/12/10 01:29:32;;;;;;;141.65;41.45;;;;;;;-0.86;96.17;94822.66;2049622;29;20055;-57
2022/12/10 01:30:33;;;;;;;145.93;42.22;;;;;;;-0.88;95.98;94825.28;2042326;29;20048;-57
2022/12/10 01:31:35;;;;;;;141.15;42.25;;;;;;;-0.90;96.32;94821.91;2042686;29;20044;-57
2022/12/10 01:32:36;;;;;;;134.70;41.30;;;;;;;-0.90;96.59;94817.66;2043088;29;20407;-57
2022/12/10 01:33:37;;;;;;;128.10;39.85;;;;;;;-0.93;95.85;94829.63;2042289;29;20051;-57
2022/12/10 01:34:38;;;;;;;138.35;43.00;;;;;;;-1.00;95.38;94798.31;2041811;29;20059;-57
2022/12/10 01:35:39;;;;;;;133.32;39.05;;;;;;;-0.84;95.52;94816.66;2042881;29;20063;-57
2022/12/10 01:36:43;;;;;;;138.40;42.72;;;;;;;-0.82;96.11;94814.94;2043032;29;20068;-57
2022/12/10 01:37:45;;;;;;;135.48;40.00;;;;;;;-0.90;96.03;94812.56;2042423;29;20082;-57
2022/12/10 01:38:47;;;;;;;131.73;38.88;;;;;;;-0.90;95.38;94816.81;2034297;29;20063;-57
2022/12/10 01:39:48;;;;;;;129.88;41.10;;;;;;;-0.91;95.42;94815.13;2042189;29;20515;-57
2022/12/10 01:40:49;;;;;;;122.00;39.90;;;;;;;-0.78;96.06;94825.88;2042263;29;20044;-57
2022/12/10 01:41:53;;;;;;;139.70;41.17;;;;;;;-0.75;95.89;94820.72;2042269;29;20530;-57
2022/12/10 01:42:55;;;;;;;118.88;41.50;;;;;;;-0.85;95.17;94804.81;2041884;29;20158;-56
2022/12/10 01:44:09;;;;;;;121.68;41.60;;;;;;;-0.83;95.27;94828.53;2042897;29;20055;-57
2022/12/10 01:45:11;;;;;;;112.75;40.03;;;;;;;-0.95;95.53;94827.09;2041927;29;20052;-57
2022/12/10 01:46:12;;;;;;;113.13;40.20;;;;;;;-0.93;95.84;94832.19;2042167;29;20404;-57
2022/12/10 01:47:13;;;;;;;113.38;41.30;;;;;;;-0.85;95.43;94827.75;2042760;29;20055;-65
2022/12/10 01:48:14;;;;;;;120.10;43.85;;;;;;;-0.89;95.32;94826.13;2041798;29;20055;-65
2022/12/10 01:49:21;;;;;;;117.70;42.38;;;;;;;-0.81;95.63;94829.34;2034702;29;20053;-65
2022/12/10 01:50:22;;;;;;;113.38;41.67;;;;;;;-0.90;95.47;94827.00;2035260;29;20060;-64
2022/12/10 01:51:23;;;;;;;114.28;41.65;;;;;;;-0.83;95.11;94831.09;2042311;29;20047;-65
2022/12/10 01:52:25;;;;;;;105.07;40.83;;;;;;;-0.81;95.49;94828.50;2041749;29;20597;-64
2022/12/10 01:53:26;;;;;;;113.18;44.60;;;;;;;-0.79;95.02;94819.97;2033932;29;20052;-65
2022/12/10 01:54:38;;;;;;;110.75;45.95;;;;;;;-0.93;94.73;94819.44;2034093;29;20063;-65
2022/12/10 01:55:45;;;;;;;102.45;42.20;;;;;;;-0.96;95.75;94816.97;2036325;29;20052;-65
2022/12/10 01:56:50;;;;;;;103.60;40.90;;;;;;;-0.94;95.32;94820.28;2035031;29;20048;-57
2022/12/10 01:57:52;;;;;;;114.20;44.25;;;;;;;-0.94;94.93;94833.03;2042148;29;20059;-57
2022/12/10 01:58:56;;;;;;;107.72;43.72;;;;;;;-1.08;95.55;94827.38;2041876;29;20055;-57
2022/12/10 01:59:59;;;;;;;106.30;43.75;;;;;;;-0.95;95.54;94833.91;2042253;29;20044;-57
2022/12/10 02:01:23;;;;;;;103.25;41.13;;;;;;;-0.96;94.65;94839.91;2034964;29;20523;-57
2022/12/10 02:02:42;;;;;;;111.35;44.28;;;;;;;-1.05;94.78;94837.53;2039996;29;20044;-57
2022/12/10 02:03:52;;;;;;;103.57;40.85;;;;;;;-1.09;95.25;94824.00;2028368;29;20382;-57
2022/12/10 02:05:07;;;;;;;108.43;41.72;;;;;;;-0.97;95.65;94823.72;2022772;29;20059;-57
2022/12/10 02:06:18;;;;;;;114.30;41.17;;;;;;;-1.01;95.16;94823.84;2028677;29;20520;-57
2022/12/10 02:07:30;;;;;;;92.90;40.45;;;;;;;-0.92;95.48;94831.28;2032372;29;20040;-57
2022/12/10 02:08:37;;;;;;;92.95;40.97;;;;;;;-0.85;95.29;94832.84;2042025;29;20111;-56
2022/12/10 02:09:43;;;;;;;90.47;38.28;;;;;;;-0.82;95.18;94842.97;2027006;29;20056;-57
2022/12/10 02:10:44;;;;;;;90.05;40.42;;;;;;;-0.82;94.32;94831.94;2027949;29;20048;-57
2022/12/10 02:12:01;;;;;;;87.65;40.78;;;;;;;-0.96;94.78;94827.97;2041701;29;20047;-57
2022/12/10 02:13:18;;;;;;;94.03;40.78;;;;;;;-0.88;94.54;94832.91;2048002;29;20049;-57
2022/12/10 02:14:27;;;;;;;92.72;38.97;;;;;;;-0.94;94.69;94828.75;2026397;29;20064;-57
2022/12/10 02:15:40;;;;;;;94.15;40.25;;;;;;;-0.83;94.28;94830.25;2023151;29;20061;-57
2022/12/10 02:16:56;;;;;;;90.45;39.95;;;;;;;-0.86;94.16;94833.69;2020361;29;20053;-57
2022/12/10 02:18:05;;;;;;;90.22;39.10;;;;;;;-0.82;94.52;94832.78;2032905;29;20044;-57
2022/12/10 02:19:27;;;;;;;83.82;37.75;;;;;;;-0.87;93.94;94831.19;2025797;29;20500;-57
2022/12/10 02:20:40;;;;;;;82.88;37.13;;;;;;;-0.95;94.01;94826.25;2032067;29;20507;-57
2022/12/10 02:21:44;;;;;;;79.97;36.88;;;;;;;-0.93;94.01;94821.97;2034061;29;20048;-57
2022/12/10 02:23:17;;;;;;;88.63;38.60;;;;;;;-0.97;95.01;94831.38;2027976;29;20064;-57
2022/12/10 02:24:23;;;;;;;92.38;39.53;;;;;;;-1.00;94.60;94830.63;2016849;29;20060;-57
2022/12/10 02:25:45;;;;;;;86.65;38.13;;;;;;;-1.01;94.30;94829.78;2033953;29;20051;-57
2022/12/10 02:27:03;;;;;;;92.20;37.92;;;;;;;-1.00;94.28;94828.06;2036834;29;20459;-57
2022/12/10 02:28:15;;;;;;;86.97;37.92;;;;;;;-1.01;94.86;94823.84;2028020;29;20473;-57
2022/12/10 02:29:20;;;;;;;92.20;40.78;;;;;;;-1.06;95.40;94829.03;2021732;29;20045;-57
2022/12/10 02:30:21;;;;;;;92.22;40.83;;;;;;;-1.01;95.01;94829.78;2027318;29;20055;-57
2022/12/10 02:31:26;;;;;;;92.97;40.50;;;;;;;-1.02;94.90;94814.50;2033705;29;20063;-57
2022/12/10 02:32:31;;;;;;;92.85;40.83;;;;;;;-1.16;95.07;94800.34;2034739;29;20036;-57
2022/12/10 02:33:37;;;;;;;84.10;40.33;;;;;;;-0.98;94.71;94813.59;2019424;29;20059;-57
2022/12/10 02:34:41;;;;;;;84.22;39.88;;;;;;;-1.08;94.69;94792.56;2027981;29;20051;-57
2022/12/10 02:35:42;;;;;;;87.95;40.35;;;;;;;-1.05;94.37;94797.59;2033787;29;20059;-57
2022/12/10 02:36:44;;;;;;;92.07;40.63;;;;;;;-0.99;94.37;94811.91;2018990;29;20511;-57
2022/12/10 02:37:51;;;;;;;80.30;37.25;;;;;;;-1.07;94.81;94793.38;2019331;29;20433;-57
2022/12/10 02:38:52;;;;;;;82.68;37.28;;;;;;;-1.13;94.34;94807.94;2034147;29;20052;-57
2022/12/10 02:39:55;;;;;;;83.13;37.83;;;;;;;-1.11;94.50;94803.66;2026406;29;20110;-57
2022/12/10 02:41:05;;;;;;;82.38;38.45;;;;;;;-1.13;95.19;94807.09;2019095;29;20366;-57
2022/12/10 02:42:07;;;;;;;80.60;37.28;;;;;;;-1.18;94.96;94812.28;2028198;29;20049;-57
2022/12/10 02:43:08;;;;;;;78.63;37.60;;;;;;;-1.08;94.70;94799.38;2018674;29;20045;-57
2022/12/10 02:44:11;;;;;;;81.18;37.92;;;;;;;-1.01;94.16;94803.47;2026453;29;20425;-57
2022/12/10 02:45:12;;;;;;;79.65;37.30;;;;;;;-1.04;94.54;94793.31;2026395;29;20386;-57
2022/12/10 02:46:14;;;;;;;83.30;39.58;;;;;;;-1.06;94.06;94808.66;2041755;29;20498;-57
2022/12/10 02:47:16;;;;;;;84.22;39.20;;;;;;;-1.12;94.16;94812.19;2041747;29;20039;-65
2022/12/10 02:48:20;;;;;;;81.35;39.05;;;;;;;-1.09;94.87;94811.28;2034537;29;20476;-65
2022/12/10 02:49:21;;;;;;;78.70;37.70;;;;;;;-1.02;94.71;94800.06;2026283;29;20056;-65
2022/12/10 02:50:23;;;;;;;82.78;38.60;;;;;;;-1.02;94.33;94799.22;2026249;29;20048;-65
2022/12/10 02:51:25;;;;;;;83.30;38.85;;;;;;;-1.01;94.63;94803.47;2033957;29;20432;-65
2022/12/10 02:52:26;;;;;;;84.88;38.00;;;;;;;-1.05;94.51;94791.66;2041600;29;20058;-64
2022/12/10 02:53:28;;;;;;;84.22;38.30;;;;;;;-1.05;94.64;94787.38;2033658;29;20052;-65
2022/12/10 02:54:37;;;;;;;92.85;40.38;;;;;;;-1.01;94.72;94791.56;2033804;29;20063;-65
2022/12/10 02:56:04;;;;;;;81.30;39.35;;;;;;;-0.96;93.93;94791.47;2042149;29;20043;-65
2022/12/10 02:57:27;;;;;;;86.22;37.70;;;;;;;-1.18;94.84;94789.34;2033930;29;20040;-65
2022/12/10 02:58:57;;;;;;;75.05;34.92;;;;;;;-1.15;94.92;94796.97;2042010;29;20047;-64
2022/12/10 03:00:06;;;;;;;79.78;36.78;;;;;;;-1.06;93.69;94789.97;2045813;29;20051;-65
2022/12/10 03:01:42;;;;;;;76.63;36.40;;;;;;;-1.09;94.45;94797.69;2036071;29;20044;-65
2022/12/10 03:02:49;;;;;;;83.82;38.25;;;;;;;-1.09;93.90;94793.44;2036827;29;20056;-65
2022/12/10 03:03:55;;;;;;;82.80;35.72;;;;;;;-1.06;93.85;94790.81;2041346;29;20059;-65
2022/12/10 03:04:58;;;;;;;78.28;36.20;;;;;;;-1.10;94.19;94794.28;2041070;29;20535;-64
2022/12/10 03:06:22;;;;;;;78.53;35.67;;;;;;;-1.14;93.81;94796.06;2041712;29;20064;-64
2022/12/10 03:07:41;;;;;;;79.72;36.50;;;;;;;-1.18;94.16;94801.25;2041647;29;20062;-65
2022/12/10 03:09:03;;;;;;;74.45;34.15;;;;;;;-1.18;94.55;94801.25;2037765;29;20515;-64
2022/12/10 03:10:13;;;;;;;74.72;35.45;;;;;;;-1.20;94.64;94796.22;2042000;29;20044;-64
2022/12/10 03:11:19;;;;;;;71.55;36.13;;;;;;;-1.11;94.43;94801.09;2041535;29;20144;-64
2022/12/10 03:12:36;;;;;;;78.20;37.88;;;;;;;-1.16;94.67;94796.97;2041987;29;20066;-57
2022/12/10 03:13:59;;;;;;;68.75;35.13;;;;;;;-1.06;94.00;94800.19;2045068;29;20105;-58
2022/12/10 03:15:02;;;;;;;72.30;36.45;;;;;;;-1.13;94.33;94810.47;2041779;29;20044;-58
2022/12/10 03:16:03;;;;;;;70.45;33.63;;;;;;;-1.09;94.07;94805.34;2041945;29;20056;-57
2022/12/10 03:17:04;;;;;;;71.50;35.78;;;;;;;-1.06;93.91;94811.19;2041514;29;20048;-59
2022/12/10 03:18:06;;;;;;;66.85;33.70;;;;;;;-1.04;93.81;94803.50;2033430;29;20052;-58
2022/12/10 03:19:19;;;;;;;76.45;36.92;;;;;;;-1.08;93.81;94809.56;2033539;29;20055;-59
2022/12/10 03:20:20;;;;;;;71.82;35.22;;;;;;;-1.05;93.99;94810.31;2035348;29;20066;-58
2022/12/10 03:21:21;;;;;;;72.40;36.17;;;;;;;-1.17;93.56;94816.53;2033378;29;20060;-59
2022/12/10 03:22:22;;;;;;;75.85;36.80;;;;;;;-1.14;93.56;94819.00;2033583;29;20515;-59
2022/12/10 03:23:23;;;;;;;74.18;36.92;;;;;;;-1.11;93.71;94815.56;2041706;29;20047;-59
2022/12/10 03:24:25;;;;;;;72.20;35.15;;;;;;;-1.11;93.40;94808.75;2041336;29;20082;-59
2022/12/10 03:25:26;;;;;;;66.47;35.08;;;;;;;-1.15;94.25;94801.19;2041405;29;20048;-59
2022/12/10 03:26:27;;;;;;;70.70;35.70;;;;;;;-1.07;94.55;94790.84;2042227;29;20055;-58
2022/12/10 03:27:29;;;;;;;71.75;36.50;;;;;;;-1.02;93.53;94797.50;2041436;29;20499;-58
2022/12/10 03:28:31;;;;;;;67.80;35.35;;;;;;;-1.01;93.70;94795.81;2041544;29;20051;-58
2022/12/10 03:29:52;;;;;;;70.50;35.75;;;;;;;-1.09;93.55;94788.34;2041807;29;20467;-58
2022/12/10 03:30:53;;;;;;;69.65;34.85;;;;;;;-1.11;93.44;94793.47;2041431;29;20074;-58
2022/12/10 03:31:54;;;;;;;69.75;35.35;;;;;;;-1.11;94.07;94803.66;2041399;29;20054;-64
2022/12/10 03:32:55;;;;;;;67.35;34.78;;;;;;;-1.09;93.83;94792.59;2033709;29;20487;-64
2022/12/10 03:33:56;;;;;;;73.47;36.55;;;;;;;-1.09;93.35;94795.97;2040794;29;20039;-65
2022/12/10 03:34:58;;;;;;;74.38;36.72;;;;;;;-1.08;94.07;94805.28;2033408;29;20052;-64
2022/12/10 03:35:59;;;;;;;69.47;35.85;;;;;;;-1.16;93.55;94805.44;2041758;29;20504;-65
2022/12/10 03:37:00;;;;;;;69.22;34.97;;;;;;;-1.06;93.51;94811.19;2041406;29;20040;-57
2022/12/10 03:38:01;;;;;;;67.85;35.58;;;;;;;-1.11;93.63;94800.25;2033168;29;20060;-56
2022/12/10 03:39:03;;;;;;;66.00;33.60;;;;;;;-1.09;93.81;94800.25;2040855;29;20074;-57
2022/12/10 03:40:05;;;;;;;64.97;34.65;;;;;;;-1.13;93.50;94800.28;2041935;29;20058;-57
2022/12/10 03:41:06;;;;;;;69.57;35.78;;;;;;;-1.18;93.94;94808.91;2041208;29;20054;-57
2022/12/10 03:42:07;;;;;;;73.93;36.08;;;;;;;-1.17;94.05;94805.50;2041412;29;20070;-55
2022/12/10 03:43:08;;;;;;;69.03;34.50;;;;;;;-1.17;94.16;94808.03;2040986;29;20058;-55
2022/12/10 03:44:09;;;;;;;67.22;35.85;;;;;;;-1.07;94.17;94806.97;2041625;29;20051;-55
2022/12/10 03:45:10;;;;;;;69.32;35.70;;;;;;;-1.17;94.13;94802.94;2041881;29;20043;-54
2022/12/10 03:46:11;;;;;;;69.80;34.03;;;;;;;-1.14;93.88;94806.25;2042045;29;20051;-55
2022/12/10 03:47:13;;;;;;;66.22;34.05;;;;;;;-1.18;93.69;94804.63;2042016;29;20052;-58
2022/12/10 03:48:14;;;;;;;68.78;34.60;;;;;;;-1.17;93.64;94808.88;2041257;29;20396;-58
2022/12/10 03:49:16;;;;;;;67.55;35.15;;;;;;;-1.09;94.10;94811.28;2040688;29;20052;-58
2022/12/10 03:50:17;;;;;;;67.78;36.45;;;;;;;-1.04;93.57;94813.69;2041849;29;20066;-58
2022/12/10 03:51:18;;;;;;;65.88;35.22;;;;;;;-1.04;93.74;94818.78;2041614;29;20059;-59
2022/12/10 03:52:19;;;;;;;67.50;33.42;;;;;;;-1.20;93.25;94805.56;2042272;29;20051;-56
2022/12/10 03:53:20;;;;;;;69.30;35.58;;;;;;;-1.10;93.28;94819.75;2042283;29;20079;-56
2022/12/10 03:54:22;;;;;;;66.70;35.50;;;;;;;-1.02;93.28;94819.59;2041823;29;20051;-56
2022/12/10 03:55:23;;;;;;;66.05;34.20;;;;;;;-1.03;93.54;94823.88;2041434;29;20460;-57
2022/12/10 03:56:24;;;;;;;68.88;36.15;;;;;;;-1.01;92.74;94819.59;2042092;29;20048;-56
2022/12/10 03:57:25;;;;;;;67.45;35.42;;;;;;;-0.94;92.76;94823.66;2041479;29;20055;-56
2022/12/10 03:58:26;;;;;;;67.35;35.03;;;;;;;-1.07;92.96;94826.50;2041506;29;20483;-56
2022/12/10 03:59:27;;;;;;;68.03;34.88;;;;;;;-1.09;92.79;94828.28;2042106;29;20044;-56
2022/12/10 04:00:28;;;;;;;68.60;34.20;;;;;;;-1.00;93.37;94823.81;2042118;29;20059;-56
2022/12/10 04:01:30;;;;;;;67.25;35.00;;;;;;;-0.98;93.59;94826.34;2042388;29;20392;-56
2022/12/10 04:02:31;;;;;;;66.30;33.50;;;;;;;-0.92;92.58;94818.56;2041539;29;20539;-57
2022/12/10 04:03:38;;;;;;;66.80;34.85;;;;;;;-0.89;92.51;94824.41;2041870;29;20403;-56
2022/12/10 04:04:39;;;;;;;66.88;33.60;;;;;;;-1.00;92.22;94825.53;2041909;29;20055;-57
2022/12/10 04:05:40;;;;;;;61.53;32.63;;;;;;;-1.03;92.49;94820.50;2041736;29;20159;-57
2022/12/10 04:06:41;;;;;;;64.95;33.53;;;;;;;-1.02;92.13;94822.16;2042085;29;20047;-56
2022/12/10 04:07:43;;;;;;;58.70;33.83;;;;;;;-1.01;92.27;94823.84;2041916;29;20412;-57
2022/12/10 04:08:44;;;;;;;64.32;33.33;;;;;;;-0.97;92.03;94831.38;2041770;29;20035;-56
2022/12/10 04:09:45;;;;;;;62.90;32.55;;;;;;;-0.99;91.93;94820.41;2041394;29;20059;-56
2022/12/10 04:10:46;;;;;;;60.03;32.28;;;;;;;-1.05;92.34;94828.16;2041867;29;20448;-57
2022/12/10 04:11:47;;;;;;;65.05;33.20;;;;;;;-1.12;93.17;94824.09;2041992;29;20043;-57
2022/12/10 04:16:26;;;;;;;66.18;34.13;;;;;;;-1.14;93.12;94819.00;2041974;29;20046;-56
2022/12/10 04:16:49;;;;;;;63.40;32.92;;;;;;;-1.12;93.71;94803.69;2041541;29;20063;-57
2022/12/10 04:17:50;;;;;;;63.65;32.47;;;;;;;-1.04;93.09;94809.47;2042048;29;20372;-57
2022/12/10 04:18:51;;;;;;;63.03;32.60;;;;;;;-1.05;93.31;94801.84;2041809;29;20063;-57
2022/12/10 04:19:52;;;;;;;65.30;34.35;;;;;;;-1.04;92.67;94804.38;2041238;29;20312;-56
2022/12/10 04:27:44;;;;;;;67.45;33.65;;;;;;;-1.02;92.85;94805.16;2016795;29;20065;-58
2022/12/10 04:28:45;;;;;;;66.22;34.53;;;;;;;-1.06;93.45;94800.19;2031021;29;20052;-57
2022/12/10 04:29:47;;;;;;;73.88;37.00;;;;;;;-1.05;93.72;94812.88;2040923;29;20496;-58
2022/12/10 04:30:48;;;;;;;68.63;36.83;;;;;;;-1.19;93.49;94782.59;2041338;29;20514;-57
2022/12/10 04:31:49;;;;;;;70.20;35.03;;;;;;;-1.01;94.10;94808.56;2041736;29;20048;-58
2022/12/10 04:32:50;;;;;;;74.72;37.78;;;;;;;-0.95;93.76;94813.53;2041255;29;20059;-58
2022/12/10 04:33:51;;;;;;;68.93;35.33;;;;;;;-1.08;93.75;94809.56;2041249;29;20051;-58
2022/12/10 04:34:52;;;;;;;61.03;32.10;;;;;;;-1.05;92.87;94815.41;2041817;29;20070;-58
2022/12/10 04:35:53;;;;;;;68.13;34.42;;;;;;;-1.03;93.51;94817.94;2041250;29;20484;-58
2022/12/10 04:36:55;;;;;;;66.88;34.20;;;;;;;-1.04;93.17;94812.03;2041680;29;20036;-58
2022/12/10 04:37:56;;;;;;;67.18;34.50;;;;;;;-1.02;92.94;94814.50;2040524;29;20416;-57
2022/12/10 04:38:57;;;;;;;67.18;34.70;;;;;;;-1.06;93.65;94815.47;2040618;29;20090;-58
2022/12/10 04:39:58;;;;;;;71.05;35.13;;;;;;;-0.98;93.15;94811.03;2041253;29;20051;-58
2022/12/10 04:40:59;;;;;;;72.13;36.58;;;;;;;-0.96;93.85;94811.84;2041202;29;20503;-58
2022/12/10 04:42:01;;;;;;;74.85;35.60;;;;;;;-1.07;93.34;94813.78;2041770;29;20046;-57
2022/12/10 04:43:02;;;;;;;70.82;35.00;;;;;;;-1.00;93.07;94811.06;2041141;29;20043;-58
2022/12/10 04:44:03;;;;;;;70.80;35.80;;;;;;;-1.05;93.73;94820.50;2041297;29;20047;-57
2022/12/10 04:45:05;;;;;;;67.13;35.22;;;;;;;-1.14;93.20;94810.53;2041514;29;20054;-57
2022/12/10 04:46:06;;;;;;;68.97;36.00;;;;;;;-1.06;93.18;94820.56;2041617;29;20063;-58
2022/12/10 04:47:08;;;;;;;67.13;35.88;;;;;;;-1.09;92.68;94816.38;2041847;29;20047;-58
2022/12/10 04:48:09;;;;;;;71.28;35.72;;;;;;;-1.15;92.76;94806.28;2041275;29;20035;-59
2022/12/10 04:49:10;;;;;;;63.47;35.30;;;;;;;-1.01;92.62;94818.75;2041200;29;20051;-58
2022/12/10 04:50:11;;;;;;;64.60;34.72;;;;;;;-0.97;92.68;94817.81;2041001;29;20052;-59
2022/12/10 04:51:12;;;;;;;70.75;34.38;;;;;;;-0.99;93.20;94822.09;2041644;29;20519;-59
2022/12/10 04:52:14;;;;;;;69.20;34.88;;;;;;;-1.04;92.59;94823.91;2041808;29;20048;-59
2022/12/10 04:53:15;;;;;;;66.15;34.22;;;;;;;-0.99;92.49;94822.97;2041587;29;20059;-59
2022/12/10 04:54:16;;;;;;;72.68;35.65;;;;;;;-1.01;92.74;94823.84;2041462;29;20036;-58
2022/12/10 04:55:18;;;;;;;67.03;34.08;;;;;;;-0.98;92.89;94834.81;2041383;29;20062;-58
2022/12/10 04:56:19;;;;;;;59.80;34.33;;;;;;;-0.93;92.14;94820.25;2041017;29;20526;-59
2022/12/10 04:57:20;;;;;;;65.72;33.75;;;;;;;-0.96;92.54;94822.06;2041417;29;20503;-55
2022/12/10 04:58:21;;;;;;;68.53;35.30;;;;;;;-0.96;92.28;94827.97;2041567;29;20039;-55
2022/12/10 04:59:22;;;;;;;62.58;34.03;;;;;;;-0.94;92.62;94827.94;2041031;29;20047;-54
2022/12/10 05:00:24;;;;;;;66.13;33.42;;;;;;;-1.03;92.08;94834.06;2041366;29;20075;-54
2022/12/10 05:01:26;;;;;;;67.03;34.22;;;;;;;-1.05;92.72;94837.53;2041042;29;20059;-55
2022/12/10 05:02:27;;;;;;;67.88;32.47;;;;;;;-0.94;92.64;94835.56;2041224;29;20058;-55